Brainerd, MN

4:22 PM CST on December 11, 2019 (GMT -0600)
Northtown | | Change Station
Active Advisory: Winter Weather Advisory

Elev 1200 ft 46.37 °N, 94.21 °W | Updated 24 seconds ago

Clear
Clear
3.6 °F
Feels Like -6 °F
N
4.7
Wind Variable Wind from SW
Gusts 0.0 mph

Today
High -- | Low -- °F
--% Chance of Precip.
Yesterday
High -- | Low -- °F
Precip. -- in
Pressure 30.47 in
Visibility 10.0 miles
Clouds Clear
Windchill -6 °F
Dew Point -2 °F
Humidity 75%
Rainfall 0.07 in
Snow Depth Not available.
7:49 AM 4:30 PM
Full, 100% visible
METAR KBRD 112153Z AUTO 24004KT 10SM CLR M16/M24 A3035 RMK AO2 SLP317 T11611239
Pressure 30.47 in
Visibility 10.0 miles
Clouds Clear
Windchill -6 °F
Dew Point -2 °F
Humidity 75%
Rainfall 0.07 in
Snow Depth Not available.
7:49 AM 4:30 PM
Full, 100% visible
METAR KBRD 112153Z AUTO 24004KT 10SM CLR M16/M24 A3035 RMK AO2 SLP317 T11611239

Get Your Daily Forecast Email!

Thanks for signing up!

Be on the lookout for a verification email in your inbox.

You'll start receiving severe weather alerts in your inbox..

×

10-Day Weather Forecast

Almanac

Astronomy

Dec. 11, 2019 Rise Set
Actual Time
Civil Twilight
Nautical Twilight
Astronomical Twilight
Moon
Length of Visible Light
Length of Day
Tomorrow will be .
, % of the Moon is Illuminated

Today's Extremes

State Highs State Lows

Community

WunderPhotos

Category 6

Welcome to Category 6. This is the collective home for Weather Underground's featured writeups by Dr. Jeff Masters (right), Bob Henson (left), Chris Burt, and other regular contributors.

Nearby

Air Quality

  Air Quality AQ Index Pollutant
Not available.

Snow Depth

Station Depth Elevation

Earthquake Activity

City Distance Mag. Time & Date
Minimum magnitude displayed is 2.5.

Coastal Water Temperatures

Place Temperature

Stations

Nearby Weather Stations

Station Location Temp. Windchill Dew Point Humidity Wind Precip. Elev Updated Type
                   

Watches & Warnings

Winter Weather Advisory
Issued: 2:19 PM CST Dec. 11, 2019 – National Weather Service

... Winter Weather Advisory now in effect from 10 PM this evening
to 10 am CST Thursday...

* what... for the Winter Weather Advisory, snow expected. Total
snow accumulations of 2 to 5 inches.

* Where... portions of east central Minnesota.

* When... from 10 PM this evening to 10 am CST Thursday.

* Impacts... plan on slippery Road conditions. The hazardous
conditions could impact the morning commute Thursday.

Precautionary/preparedness actions...

Slow down and use caution while traveling.

The latest Road conditions can be obtained by calling 5 1 1. Road
conditions can also be found at 511mn.Org for Minnesota or
511wi.Gov for Wisconsin.